Time;durP1;ratioP1;P1;durP2;ratioP2;P2;SDS_P1;SDS_P2;PMS_P1;PMS_P2;Temp;Humidity;BMP_temperature;BMP_pressure;BME280_temperature;BME280_humidity;BME280_pressure;Samples;Min_cycle;Max_cycle;Signal;HPM_P1;HPM_P2
2022/06/12 00:00:57;;;;;;;;;;;;;;;22.08;84.72;96630.60;601754;236;62795;-69
2022/06/12 00:03:26;;;;;;;;;;;;;;;22.08;84.76;96629.81;601800;236;64896;-69
2022/06/12 00:05:55;;;;;;;;;;;;;;;22.08;84.78;96624.45;601804;236;67133;-69
2022/06/12 00:08:23;;;;;;;;;;;;;;;22.08;84.78;96621.78;601783;236;63830;-69
2022/06/12 00:10:52;;;;;;;;;;;;;;;22.07;84.80;96623.66;601256;236;64921;-69
2022/06/12 00:13:21;;;;;;;;;;;;;;;22.09;84.79;96628.72;601003;236;64858;-69
2022/06/12 00:15:49;;;;;;;;;;;;;;;22.08;84.77;96635.95;601010;236;64942;-69
2022/06/12 00:18:16;;;;;;;;;;;;;;;22.08;84.74;96632.48;601061;236;67182;-69
2022/06/12 00:20:44;;;;;;;;;;;;;;;22.07;84.73;96631.69;601068;236;66871;-69
2022/06/12 00:23:13;;;;;;;;;;;;;;;22.07;84.73;96630.88;601000;236;64871;-69
2022/06/12 00:25:41;;;;;;;;;;;;;;;22.07;84.76;96634.38;601046;236;64872;-69
2022/06/12 00:28:09;;;;;;;;;;;;;;;22.08;84.74;96635.16;601019;236;64856;-69
2022/06/12 00:30:36;;;;;;;;;;;;;;;22.07;84.73;96636.22;601020;236;62795;-69
2022/06/12 00:33:05;;;;;;;;;;;;;;;22.07;84.67;96636.22;601081;236;65056;-69
2022/06/12 00:35:34;;;;;;;;;;;;;;;22.07;84.67;96631.69;600999;236;67192;-69
2022/06/12 00:38:07;;;;;;;;;;;;;;;22.06;84.71;96638.11;601006;236;64882;-69
2022/06/12 00:40:34;;;;;;;;;;;;;;;22.08;84.73;96637.84;601001;236;67057;-69
2022/06/12 00:43:03;;;;;;;;;;;;;;;22.07;84.74;96620.98;600989;236;67017;-69
2022/06/12 00:45:41;;;;;;;;;;;;;;;22.07;84.74;96630.88;601043;234;65286;-69
2022/06/12 00:48:10;;;;;;;;;;;;;;;22.07;84.74;96620.98;601045;236;64892;-70
2022/06/12 00:50:39;;;;;;;;;;;;;;;22.07;84.73;96617.49;601021;236;65045;-70
2022/06/12 00:53:08;;;;;;;;;;;;;;;22.07;84.67;96614.81;600983;234;64865;-70
2022/06/12 00:55:43;;;;;;;;;;;;;;;22.07;84.71;96617.49;601010;236;66722;-69
2022/06/12 00:58:12;;;;;;;;;;;;;;;22.06;84.71;96618.59;601027;236;64820;-67
2022/06/12 01:00:40;;;;;;;;;;;;;;;22.06;84.73;96614.03;601050;236;65983;-68
2022/06/12 01:03:09;;;;;;;;;;;;;;;22.06;84.73;96621.27;600999;236;67383;-68
2022/06/12 01:08:22;;;;;;;;;;;;;;;22.05;84.75;96615.13;601021;236;62800;-68
2022/06/12 01:10:51;;;;;;;;;;;;;;;22.07;84.75;96625.52;601370;234;67340;-72
2022/06/12 01:13:20;;;;;;;;;;;;;;;22.05;84.74;96636.53;601783;236;67000;-71
2022/06/12 01:15:49;;;;;;;;;;;;;;;22.06;84.77;96634.64;601770;233;64930;-71
2022/06/12 01:18:18;;;;;;;;;;;;;;;22.06;84.79;96634.64;601770;236;64410;-71
2022/06/12 01:20:47;;;;;;;;;;;;;;;22.06;84.81;96623.94;601786;236;66875;-71
2022/06/12 01:23:28;;;;;;;;;;;;;;;22.04;84.79;96626.89;601034;233;64856;-71
2022/06/12 01:26:03;;;;;;;;;;;;;;;22.06;84.77;96629.29;601684;233;67101;-72
2022/06/12 01:28:49;;;;;;;;;;;;;;;22.05;84.76;96633.85;601779;236;64767;-72
2022/06/12 01:31:34;;;;;;;;;;;;;;;22.05;84.79;96631.17;601813;236;62809;-71
2022/06/12 01:34:07;;;;;;;;;;;;;;;22.06;84.81;96635.44;601829;236;67123;-71
2022/06/12 01:36:42;;;;;;;;;;;;;;;22.05;84.79;96633.06;601792;236;66887;-71
2022/06/12 01:39:17;;;;;;;;;;;;;;;22.04;84.77;96629.56;601692;236;63049;-72
2022/06/12 01:41:49;;;;;;;;;;;;;;;22.03;84.78;96630.66;601726;233;67961;-73
2022/06/12 01:44:18;;;;;;;;;;;;;;;22.05;84.79;96633.06;601764;236;66642;-73
2022/06/12 01:46:50;;;;;;;;;;;;;;;22.04;84.81;96634.13;601728;233;62812;-72
2022/06/12 01:49:22;;;;;;;;;;;;;;;22.04;84.83;96626.89;601780;233;67096;-71
2022/06/12 01:51:51;;;;;;;;;;;;;;;22.04;84.89;96628.77;601717;234;67220;-72
2022/06/12 01:54:22;;;;;;;;;;;;;;;22.05;84.85;96635.73;601726;236;64836;-72
2022/06/12 01:56:58;;;;;;;;;;;;;;;22.04;84.86;96632.24;601766;233;67139;-72
2022/06/12 01:59:38;;;;;;;;;;;;;;;22.04;84.84;96626.89;601210;233;64868;-73
2022/06/12 02:02:06;;;;;;;;;;;;;;;22.04;84.85;96634.13;601755;233;62787;-73
2022/06/12 02:04:36;;;;;;;;;;;;;;;22.04;84.86;96632.24;601837;233;65756;-73
2022/06/12 02:07:08;;;;;;;;;;;;;;;22.04;84.84;96639.48;601763;233;64567;-70
2022/06/12 02:09:48;;;;;;;;;;;;;;;22.03;84.83;96632.55;601747;236;62802;-70
2022/06/12 02:15:11;;;;;;;;;;;;;;;22.04;84.84;96639.48;601801;236;66754;-69
2022/06/12 02:17:40;;;;;;;;;;;;;;;22.04;84.84;96636.80;601734;233;63023;-69
2022/06/12 02:20:09;;;;;;;;;;;;;;;22.03;84.81;96636.02;601777;233;65937;-69
2022/06/12 02:22:39;;;;;;;;;;;;;;;22.02;84.81;96629.08;601834;236;66649;-69
2022/06/12 02:25:09;;;;;;;;;;;;;;;22.02;84.80;96637.10;601783;236;64942;-69
2022/06/12 02:27:38;;;;;;;;;;;;;;;22.03;84.82;96632.55;601818;236;64812;-69
2022/06/12 02:30:09;;;;;;;;;;;;;;;22.03;84.84;96635.22;601780;236;64662;-69
2022/06/12 02:32:56;;;;;;;;;;;;;;;22.04;84.88;96644.83;601775;233;62765;-69
2022/06/12 02:35:27;;;;;;;;;;;;;;;22.03;84.92;96640.57;601813;233;64933;-69
2022/06/12 02:37:56;;;;;;;;;;;;;;;22.03;84.83;96645.92;601848;233;64786;-72
2022/06/12 02:40:25;;;;;;;;;;;;;;;22.04;84.85;96639.48;601800;236;62759;-72
2022/06/12 02:42:53;;;;;;;;;;;;;;;22.03;84.78;96645.92;601748;236;67947;-68
2022/06/12 02:45:22;;;;;;;;;;;;;;;22.03;84.81;96643.25;601792;236;64948;-69
2022/06/12 02:47:51;;;;;;;;;;;;;;;22.03;84.80;96637.89;601784;236;62818;-69
2022/06/12 02:50:21;;;;;;;;;;;;;;;22.04;84.80;96636.80;601813;236;67289;-69
2022/06/12 02:53:08;;;;;;;;;;;;;;;22.02;84.77;96645.13;601788;236;67040;-69
2022/06/12 02:55:37;;;;;;;;;;;;;;;22.03;84.75;96643.25;601752;233;64770;-69
2022/06/12 02:58:09;;;;;;;;;;;;;;;22.03;84.77;96643.25;601733;233;67250;-68
2022/06/12 03:00:39;;;;;;;;;;;;;;;22.03;84.81;96643.25;601827;236;64583;-68
2022/06/12 03:03:10;;;;;;;;;;;;;;;22.02;84.87;96645.13;601687;233;62977;-68
2022/06/12 03:05:39;;;;;;;;;;;;;;;22.03;84.90;96640.57;601734;233;67057;-68
2022/06/12 03:08:08;;;;;;;;;;;;;;;22.02;84.88;96655.84;601776;236;67091;-68
2022/06/12 03:10:37;;;;;;;;;;;;;;;22.03;84.89;96648.59;601710;236;64852;-67
2022/06/12 03:13:06;;;;;;;;;;;;;;;22.02;84.85;96641.66;601790;236;67107;-71
2022/06/12 03:15:38;;;;;;;;;;;;;;;22.02;84.84;96649.69;601776;236;67033;-71
2022/06/12 03:18:07;;;;;;;;;;;;;;;22.02;84.82;96647.81;601791;236;62607;-73
2022/06/12 03:20:36;;;;;;;;;;;;;;;22.02;84.87;96644.34;601846;236;64826;-72
2022/06/12 03:23:09;;;;;;;;;;;;;;;22.02;84.84;96642.45;601709;233;64823;-72
2022/06/12 03:25:38;;;;;;;;;;;;;;;22.02;84.84;96639.78;601667;233;62778;-69
2022/06/12 03:28:10;;;;;;;;;;;;;;;22.02;84.88;96634.43;601791;236;66872;-69
2022/06/12 03:30:41;;;;;;;;;;;;;;;22.03;84.84;96632.55;601779;236;67109;-69
2022/06/12 03:33:10;;;;;;;;;;;;;;;22.02;84.91;96628.28;601819;233;62634;-72
2022/06/12 03:35:40;;;;;;;;;;;;;;;22.02;84.88;96618.38;601773;236;67390;-72
2022/06/12 03:38:09;;;;;;;;;;;;;;;22.02;84.88;96620.26;601774;236;64856;-72
2022/06/12 03:40:44;;;;;;;;;;;;;;;22.02;84.84;96621.05;601899;233;62726;-72
2022/06/12 03:43:16;;;;;;;;;;;;;;;22.02;84.88;96622.94;601804;236;64901;-71
2022/06/12 03:45:45;;;;;;;;;;;;;;;22.02;84.92;96621.05;601766;235;64529;-71
2022/06/12 03:48:26;;;;;;;;;;;;;;;22.01;84.96;96621.33;601813;236;62761;-71
2022/06/12 03:50:58;;;;;;;;;;;;;;;22.01;84.90;96626.67;601788;233;66949;-72
2022/06/12 03:53:30;;;;;;;;;;;;;;;22.01;84.96;96621.33;601797;233;64582;-72
2022/06/12 03:58:47;;;;;;;;;;;;;;;22.01;84.99;96627.47;601766;236;67159;-72
2022/06/12 04:01:15;;;;;;;;;;;;;;;22.01;84.98;96626.67;601767;236;64844;-71
2022/06/12 04:03:44;;;;;;;;;;;;;;;22.00;84.99;96620.53;601840;236;62757;-71
2022/06/12 04:06:16;;;;;;;;;;;;;;;22.01;84.99;96624.00;601817;236;68020;-71
2022/06/12 04:08:51;;;;;;;;;;;;;;;22.01;85.01;96624.00;601757;233;66893;-68
2022/06/12 04:11:20;;;;;;;;;;;;;;;22.00;84.98;96628.56;601125;233;62765;-68
2022/06/12 04:13:49;;;;;;;;;;;;;;;22.01;84.99;96629.35;601035;236;64915;-68
2022/06/12 04:16:24;;;;;;;;;;;;;;;22.01;84.98;96629.35;601037;236;66770;-68
2022/06/12 04:18:52;;;;;;;;;;;;;;;22.01;84.94;96634.70;601063;236;62806;-69
2022/06/12 04:21:24;;;;;;;;;;;;;;;22.01;84.94;96635.49;600980;236;64936;-69
2022/06/12 04:23:53;;;;;;;;;;;;;;;22.00;84.92;96635.80;600965;233;65131;-69
2022/06/12 04:26:25;;;;;;;;;;;;;;;22.01;84.94;96637.38;601010;233;62721;-69
2022/06/12 04:28:57;;;;;;;;;;;;;;;22.01;84.90;96630.14;601056;233;64960;-68
2022/06/12 04:31:25;;;;;;;;;;;;;;;22.00;84.92;96639.27;601041;233;67018;-71
2022/06/12 04:34:00;;;;;;;;;;;;;;;22.00;84.93;96631.23;601044;236;64908;-71
2022/06/12 04:36:28;;;;;;;;;;;;;;;22.00;84.90;96635.80;600997;236;67101;-71
2022/06/12 04:38:55;;;;;;;;;;;;;;;22.01;84.94;96640.05;601041;236;66997;-68
2022/06/12 04:41:24;;;;;;;;;;;;;;;22.00;84.96;96644.61;601039;236;65040;-68
2022/06/12 04:43:52;;;;;;;;;;;;;;;22.00;84.95;96643.83;601033;236;64740;-68
2022/06/12 04:46:20;;;;;;;;;;;;;;;22.00;84.93;96649.97;601040;236;64871;-67
2022/06/12 04:48:49;;;;;;;;;;;;;;;22.00;84.91;96651.85;600930;234;63056;-68
2022/06/12 04:51:17;;;;;;;;;;;;;;;22.00;84.88;96649.17;601021;236;67394;-68
2022/06/12 04:53:46;;;;;;;;;;;;;;;22.00;84.94;96643.83;601033;236;64625;-67
2022/06/12 04:56:14;;;;;;;;;;;;;;;22.00;84.95;96651.85;600993;236;64888;-67
2022/06/12 04:58:43;;;;;;;;;;;;;;;22.00;84.97;96654.52;601031;236;65044;-68
2022/06/12 05:01:10;;;;;;;;;;;;;;;22.00;84.96;96657.20;601042;236;64716;-68
2022/06/12 05:03:38;;;;;;;;;;;;;;;22.00;84.94;96655.31;600997;236;62596;-68
2022/06/12 05:06:06;;;;;;;;;;;;;;;22.00;84.98;96657.99;601051;236;65135;-68
2022/06/12 05:08:34;;;;;;;;;;;;;;;21.99;84.95;96661.77;601023;236;66888;-68
2022/06/12 05:11:01;;;;;;;;;;;;;;;22.00;84.95;96665.23;601458;236;65215;-68
2022/06/12 05:13:29;;;;;;;;;;;;;;;21.99;85.00;96660.94;601772;236;67075;-68
2022/06/12 05:15:56;;;;;;;;;;;;;;;21.99;84.97;96658.27;601780;233;66877;-67
2022/06/12 05:18:24;;;;;;;;;;;;;;;22.00;84.96;96657.20;601762;236;64965;-67
2022/06/12 05:20:51;;;;;;;;;;;;;;;22.00;84.96;96654.52;601771;236;67958;-68
2022/06/12 05:23:20;;;;;;;;;;;;;;;22.00;85.00;96657.20;601772;236;66997;-68
2022/06/12 05:25:47;;;;;;;;;;;;;;;22.00;85.00;96651.85;601816;236;64869;-68
2022/06/12 05:28:16;;;;;;;;;;;;;;;22.00;84.97;96662.55;601703;233;67176;-68
2022/06/12 05:30:44;;;;;;;;;;;;;;;21.98;85.00;96660.15;601769;236;65593;-68
2022/06/12 05:33:12;;;;;;;;;;;;;;;21.99;85.00;96663.61;601776;234;63997;-68
2022/06/12 05:35:40;;;;;;;;;;;;;;;21.99;84.98;96667.11;601760;236;67146;-68
2022/06/12 05:38:09;;;;;;;;;;;;;;;21.99;84.97;96666.30;601807;236;67222;-68
2022/06/12 05:40:38;;;;;;;;;;;;;;;21.99;85.04;96660.94;601750;236;63680;-68
2022/06/12 05:43:06;;;;;;;;;;;;;;;21.99;85.02;96663.61;601769;236;64789;-68
2022/06/12 05:45:34;;;;;;;;;;;;;;;21.99;85.06;96666.30;601762;236;68096;-68
2022/06/12 05:48:03;;;;;;;;;;;;;;;21.99;85.03;96666.30;601775;234;65058;-68
2022/06/12 05:50:32;;;;;;;;;;;;;;;21.99;85.07;96671.64;601795;236;64914;-68
2022/06/12 05:52:59;;;;;;;;;;;;;;;21.99;85.12;96674.32;601736;234;66935;-68
2022/06/12 05:55:27;;;;;;;;;;;;;;;21.99;85.10;96676.99;601776;236;63741;-68
2022/06/12 05:57:54;;;;;;;;;;;;;;;21.98;85.10;96676.20;601748;236;64324;-68
2022/06/12 06:00:24;;;;;;;;;;;;;;;21.99;85.08;96676.99;601789;234;64817;-68
2022/06/12 06:02:51;;;;;;;;;;;;;;;21.99;85.05;96676.99;601718;233;64953;-68
2022/06/12 06:05:19;;;;;;;;;;;;;;;21.98;85.10;96686.91;601749;236;67269;-67
2022/06/12 06:07:46;;;;;;;;;;;;;;;21.98;85.02;96681.55;601717;236;67231;-68
2022/06/12 06:10:15;;;;;;;;;;;;;;;21.98;85.07;96681.55;601463;234;66274;-71
2022/06/12 06:12:43;;;;;;;;;;;;;;;21.98;85.06;96691.47;601014;236;67095;-71
2022/06/12 06:15:11;;;;;;;;;;;;;;;21.98;84.84;96691.47;601055;236;66886;-71
2022/06/12 06:17:39;;;;;;;;;;;;;;;21.99;84.89;96687.70;601078;236;62796;-71
2022/06/12 06:20:07;;;;;;;;;;;;;;;21.98;85.12;96684.23;601036;236;64778;-71
2022/06/12 06:22:35;;;;;;;;;;;;;;;21.99;85.31;96674.32;601033;236;68343;-71
2022/06/12 06:25:03;;;;;;;;;;;;;;;21.99;85.47;96682.34;601041;236;65120;-71
2022/06/12 06:27:30;;;;;;;;;;;;;;;22.00;85.49;96683.95;601004;236;64755;-71
2022/06/12 06:29:58;;;;;;;;;;;;;;;22.00;85.53;96682.07;601058;234;66782;-71
2022/06/12 06:32:25;;;;;;;;;;;;;;;22.00;85.64;96682.07;601054;236;65011;-71
2022/06/12 06:34:53;;;;;;;;;;;;;;;22.01;85.65;96682.86;601010;236;66927;-71
2022/06/12 06:37:20;;;;;;;;;;;;;;;22.02;85.64;96689.83;601014;236;66792;-71
2022/06/12 06:39:48;;;;;;;;;;;;;;;22.02;85.61;96695.18;601029;236;62747;-71
2022/06/12 06:42:15;;;;;;;;;;;;;;;22.03;85.59;96694.09;601073;236;64604;-71
2022/06/12 06:47:31;;;;;;;;;;;;;;;22.02;85.38;96687.94;600996;236;65151;-72
2022/06/12 06:49:58;;;;;;;;;;;;;;;22.02;85.41;96693.30;601018;236;67310;-72
2022/06/12 06:52:26;;;;;;;;;;;;;;;22.03;85.36;96686.84;601000;236;65422;-72
2022/06/12 06:54:54;;;;;;;;;;;;;;;22.02;85.34;96682.59;600992;236;65148;-72
2022/06/12 06:57:21;;;;;;;;;;;;;;;22.03;85.35;96689.53;601062;236;64888;-69
2022/06/12 06:59:49;;;;;;;;;;;;;;;22.04;85.30;96693.78;600967;236;66916;-69
2022/06/12 07:02:16;;;;;;;;;;;;;;;22.04;85.31;96699.14;601001;236;64897;-69
2022/06/12 07:04:44;;;;;;;;;;;;;;;22.05;85.31;96691.93;601013;236;67130;-72
2022/06/12 07:07:11;;;;;;;;;;;;;;;22.04;85.23;96704.48;600997;236;66816;-72
2022/06/12 07:09:40;;;;;;;;;;;;;;;22.04;85.21;96693.78;601040;236;64919;-71
2022/06/12 07:12:08;;;;;;;;;;;;;;;22.04;85.19;96696.46;601027;236;64539;-71
2022/06/12 07:14:35;;;;;;;;;;;;;;;22.05;85.14;96694.61;601017;236;67149;-71
2022/06/12 07:17:03;;;;;;;;;;;;;;;22.05;85.12;96697.28;601009;236;64861;-68
2022/06/12 07:19:31;;;;;;;;;;;;;;;22.06;85.13;96706.89;601025;236;65157;-68
2022/06/12 07:22:00;;;;;;;;;;;;;;;22.06;85.11;96704.22;601079;236;67000;-68
2022/06/12 07:24:28;;;;;;;;;;;;;;;22.04;85.07;96707.16;601046;236;65221;-68
2022/06/12 07:26:56;;;;;;;;;;;;;;;22.05;85.08;96724.83;600985;236;67034;-68
2022/06/12 07:29:23;;;;;;;;;;;;;;;22.05;85.04;96721.36;601022;236;64977;-68
2022/06/12 07:31:51;;;;;;;;;;;;;;;22.05;85.04;96724.83;601029;236;63663;-69
2022/06/12 07:34:18;;;;;;;;;;;;;;;22.06;85.00;96722.95;601099;236;67218;-68
2022/06/12 07:36:47;;;;;;;;;;;;;;;22.06;85.01;96730.98;601016;236;67233;-68
2022/06/12 07:39:16;;;;;;;;;;;;;;;22.07;85.00;96737.91;601053;236;65068;-68
2022/06/12 07:41:44;;;;;;;;;;;;;;;22.07;85.07;96740.59;600961;236;67040;-68
2022/06/12 07:44:13;;;;;;;;;;;;;;;22.07;85.04;96743.27;601029;236;66998;-68
2022/06/12 07:46:41;;;;;;;;;;;;;;;22.07;85.03;96737.91;601052;236;62988;-68
2022/06/12 07:49:08;;;;;;;;;;;;;;;22.08;85.07;96756.38;601018;236;64864;-68
2022/06/12 07:51:36;;;;;;;;;;;;;;;22.07;85.04;96748.61;601052;236;64829;-68
2022/06/12 07:54:03;;;;;;;;;;;;;;;22.08;85.01;96750.23;600996;236;62756;-68
2022/06/12 07:56:31;;;;;;;;;;;;;;;22.07;85.00;96754.80;601032;234;67144;-68
2022/06/12 07:58:59;;;;;;;;;;;;;;;22.07;85.00;96760.14;601061;236;67585;-68
2022/06/12 08:01:27;;;;;;;;;;;;;;;22.07;85.02;96759.32;601073;234;62748;-68
2022/06/12 08:03:55;;;;;;;;;;;;;;;22.07;84.99;96759.32;601025;234;67894;-68
2022/06/12 08:06:24;;;;;;;;;;;;;;;22.07;84.98;96759.32;600994;234;67276;-68
2022/06/12 08:08:52;;;;;;;;;;;;;;;22.07;84.97;96765.50;600997;236;64957;-68
2022/06/12 08:11:25;;;;;;;;;;;;;;;22.09;84.97;96765.19;601000;236;67048;-68
2022/06/12 08:13:50;;;;;;;;;;;;;;;22.08;84.95;96771.64;600950;236;66993;-68
2022/06/12 08:16:18;;;;;;;;;;;;;;;22.08;84.95;96772.43;601021;236;65266;-68
2022/06/12 08:18:45;;;;;;;;;;;;;;;22.08;84.95;96777.78;601002;236;67401;-68
2022/06/12 08:21:14;;;;;;;;;;;;;;;22.08;84.95;96782.34;601019;236;66921;-68
2022/06/12 08:23:43;;;;;;;;;;;;;;;22.07;84.89;96776.20;601032;236;66001;-68
2022/06/12 08:26:12;;;;;;;;;;;;;;;22.08;84.90;96776.98;601062;236;64577;-68
2022/06/12 08:28:44;;;;;;;;;;;;;;;22.07;84.88;96778.05;600991;236;66878;-68
2022/06/12 08:31:13;;;;;;;;;;;;;;;22.08;84.90;96782.34;600976;233;64965;-68
2022/06/12 08:33:42;;;;;;;;;;;;;;;22.08;84.89;96777.78;600985;236;67282;-68
2022/06/12 08:36:11;;;;;;;;;;;;;;;22.08;84.90;96782.34;601019;236;66938;-68
2022/06/12 08:38:38;;;;;;;;;;;;;;;22.08;84.89;96782.34;601012;236;64870;-68
2022/06/12 08:41:10;;;;;;;;;;;;;;;22.08;84.86;96783.13;601074;236;67066;-68
2022/06/12 08:43:48;;;;;;;;;;;;;;;22.08;84.82;96787.70;600975;233;66961;-68
2022/06/12 08:46:21;;;;;;;;;;;;;;;22.08;84.83;96793.05;600984;233;62752;-67
2022/06/12 08:48:51;;;;;;;;;;;;;;;22.07;84.80;96800.28;601019;233;65855;-67
2022/06/12 08:51:20;;;;;;;;;;;;;;;22.08;84.79;96804.55;601015;236;67162;-68
2022/06/12 08:53:50;;;;;;;;;;;;;;;22.08;84.81;96798.40;601020;233;65175;-68
2022/06/12 08:56:22;;;;;;;;;;;;;;;22.08;84.78;96809.89;601054;236;67271;-67
2022/06/12 08:58:51;;;;;;;;;;;;;;;22.08;84.80;96809.89;600974;233;67013;-70
2022/06/12 09:01:18;;;;;;;;;;;;;;;22.09;84.79;96808.02;600994;233;62755;-70
2022/06/12 09:03:49;;;;;;;;;;;;;;;22.08;84.81;96801.87;601016;236;64864;-67
2022/06/12 09:06:27;;;;;;;;;;;;;;;22.09;84.80;96802.66;601032;236;66873;-67
2022/06/12 09:09:05;;;;;;;;;;;;;;;22.09;84.78;96802.66;601008;236;62729;-70
2022/06/12 09:11:34;;;;;;;;;;;;;;;22.07;84.76;96796.78;601668;233;64912;-70
2022/06/12 09:14:06;;;;;;;;;;;;;;;22.08;84.73;96809.89;601789;233;66797;-69
2022/06/12 09:16:38;;;;;;;;;;;;;;;22.09;84.73;96802.66;601759;233;62854;-68
2022/06/12 09:19:10;;;;;;;;;;;;;;;22.09;84.73;96802.66;601593;233;67107;-68
2022/06/12 09:21:45;;;;;;;;;;;;;;;22.09;84.76;96816.04;601706;233;68342;-68
2022/06/12 09:24:14;;;;;;;;;;;;;;;22.09;84.70;96818.72;601786;236;66172;-68
2022/06/12 09:26:56;;;;;;;;;;;;;;;22.09;84.70;96816.04;601684;233;67059;-68
2022/06/12 09:29:32;;;;;;;;;;;;;;;22.10;84.70;96812.30;601737;236;64828;-69
2022/06/12 09:32:01;;;;;;;;;;;;;;;22.08;84.69;96817.92;601732;236;62858;-69
2022/06/12 09:34:39;;;;;;;;;;;;;;;22.09;84.68;96818.72;601643;236;67098;-69
2022/06/12 09:38:18;;;;;;;;;;;;;;;22.09;84.69;96813.36;601684;236;66952;-68
2022/06/12 09:39:39;;;;;;;;;;;;;;;22.08;84.71;96819.81;600869;236;62763;-68
2022/06/12 09:42:20;;;;;;;;;;;;;;;22.09;84.68;96818.72;601838;234;64614;-69
2022/06/12 09:44:49;;;;;;;;;;;;;;;22.09;84.65;96824.06;601729;234;64858;-69
2022/06/12 09:47:33;;;;;;;;;;;;;;;22.09;84.70;96818.72;601734;236;64970;-69
2022/06/12 09:50:11;;;;;;;;;;;;;;;22.09;84.63;96813.36;601628;233;67324;-69
2022/06/12 09:52:45;;;;;;;;;;;;;;;22.09;84.61;96816.83;601759;236;64951;-68
2022/06/12 09:55:19;;;;;;;;;;;;;;;22.08;84.63;96817.92;601761;236;65078;-68
2022/06/12 09:57:59;;;;;;;;;;;;;;;22.09;84.59;96821.39;601720;236;67094;-68
2022/06/12 10:00:28;;;;;;;;;;;;;;;22.09;84.59;96819.51;601817;236;66891;-68
2022/06/12 10:02:57;;;;;;;;;;;;;;;22.09;84.55;96824.86;601775;234;64951;-68
2022/06/12 10:05:29;;;;;;;;;;;;;;;22.09;84.55;96808.02;601735;234;64948;-68
2022/06/12 10:07:58;;;;;;;;;;;;;;;22.09;84.56;96808.02;601728;233;66880;-68
2022/06/12 10:10:27;;;;;;;;;;;;;;;22.08;84.54;96809.89;601414;233;62895;-68
2022/06/12 10:12:58;;;;;;;;;;;;;;;22.08;84.54;96809.89;600963;236;67018;-68
2022/06/12 10:15:30;;;;;;;;;;;;;;;22.09;84.49;96810.69;600962;233;66951;-68
2022/06/12 10:18:05;;;;;;;;;;;;;;;22.10;84.50;96804.27;600898;233;62827;-68
2022/06/12 10:20:32;;;;;;;;;;;;;;;22.09;84.46;96811.48;600970;236;67191;-68
2022/06/12 10:23:00;;;;;;;;;;;;;;;22.08;84.45;96799.19;601016;236;66913;-68
2022/06/12 10:25:33;;;;;;;;;;;;;;;22.09;84.44;96800.78;600948;236;62766;-68
2022/06/12 10:28:03;;;;;;;;;;;;;;;22.09;84.47;96795.42;601043;236;67123;-68
2022/06/12 10:30:41;;;;;;;;;;;;;;;22.09;84.45;96797.31;601002;236;67243;-68
2022/06/12 10:33:19;;;;;;;;;;;;;;;22.09;84.45;96790.07;600975;236;62988;-68
2022/06/12 10:35:48;;;;;;;;;;;;;;;22.09;84.42;96786.60;600937;236;64336;-68
2022/06/12 10:38:16;;;;;;;;;;;;;;;22.09;84.41;96783.92;600982;236;66923;-68
2022/06/12 10:40:51;;;;;;;;;;;;;;;22.09;84.44;96781.25;600951;236;65101;-67
2022/06/12 10:43:20;;;;;;;;;;;;;;;22.09;84.37;96778.58;601041;236;67024;-71
2022/06/12 10:45:49;;;;;;;;;;;;;;;22.10;84.39;96774.84;600990;233;66894;-71
2022/06/12 10:48:24;;;;;;;;;;;;;;;22.09;84.36;96765.19;600953;233;63013;-71
2022/06/12 10:50:53;;;;;;;;;;;;;;;22.09;84.35;96759.84;601031;236;64630;-71
2022/06/12 10:53:22;;;;;;;;;;;;;;;22.09;84.36;96760.63;600987;236;67381;-71
2022/06/12 10:56:07;;;;;;;;;;;;;;;22.09;84.36;96757.95;601040;236;64890;-71
2022/06/12 10:58:54;;;;;;;;;;;;;;;22.08;84.37;96751.02;601070;236;67095;-71
2022/06/12 11:01:39;;;;;;;;;;;;;;;22.10;84.43;96756.10;600978;233;67057;-72
2022/06/12 11:04:13;;;;;;;;;;;;;;;22.09;84.37;96751.81;601080;233;62821;-72
2022/06/12 11:06:45;;;;;;;;;;;;;;;22.09;84.34;96746.46;600956;233;65400;-68
2022/06/12 11:09:14;;;;;;;;;;;;;;;22.09;84.32;96747.25;600922;233;64952;-68
2022/06/12 11:11:43;;;;;;;;;;;;;;;22.09;84.25;96752.61;601654;233;62993;-68
2022/06/12 11:14:28;;;;;;;;;;;;;;;22.10;84.19;96745.40;601779;233;67928;-68
2022/06/12 11:17:07;;;;;;;;;;;;;;;22.09;84.22;96746.46;601762;236;66876;-68
2022/06/12 11:19:36;;;;;;;;;;;;;;;22.09;84.24;96741.11;601832;236;65196;-68
2022/06/12 11:22:21;;;;;;;;;;;;;;;22.09;84.25;96730.41;601784;236;64960;-68
2022/06/12 11:25:03;;;;;;;;;;;;;;;22.09;84.24;96727.73;601789;236;64877;-68
2022/06/12 11:27:35;;;;;;;;;;;;;;;22.09;84.28;96730.41;601692;233;65139;-68
2022/06/12 11:30:10;;;;;;;;;;;;;;;22.10;84.28;96734.69;601439;233;67092;-68
2022/06/12 11:32:39;;;;;;;;;;;;;;;22.10;84.30;96737.38;601749;233;67165;-68
2022/06/12 11:35:27;;;;;;;;;;;;;;;22.09;84.28;96736.55;601840;236;65135;-68
2022/06/12 11:38:02;;;;;;;;;;;;;;;22.10;84.30;96737.38;601847;236;67222;-68
2022/06/12 11:40:50;;;;;;;;;;;;;;;22.10;84.27;96742.72;601716;233;64965;-67
2022/06/12 11:43:19;;;;;;;;;;;;;;;22.10;84.26;96740.05;601799;236;63075;-67
2022/06/12 11:45:53;;;;;;;;;;;;;;;22.09;84.26;96735.76;601703;233;64868;-68
2022/06/12 11:48:25;;;;;;;;;;;;;;;22.09;84.27;96731.20;601807;233;64533;-67
2022/06/12 11:51:03;;;;;;;;;;;;;;;22.09;84.23;96735.76;601742;236;65330;-67
2022/06/12 11:53:39;;;;;;;;;;;;;;;22.09;84.25;96733.08;601786;233;65134;-68
2022/06/12 11:56:08;;;;;;;;;;;;;;;22.09;84.23;96728.52;601721;233;65108;-70
2022/06/12 11:58:43;;;;;;;;;;;;;;;22.09;84.25;96727.73;601412;233;64872;-70
2022/06/12 12:01:21;;;;;;;;;;;;;;;22.10;84.22;96732.02;601665;233;67204;-68
2022/06/12 12:04:08;;;;;;;;;;;;;;;22.09;84.18;96733.88;589966;236;64719;-70
2022/06/12 12:06:54;;;;;;;;;;;;;;;22.08;84.19;96729.61;595358;236;66474;-68
2022/06/12 12:09:29;;;;;;;;;;;;;;;22.10;84.16;96732.81;595245;236;70702;-67
2022/06/12 12:11:59;;;;;;;;;;;;;;;22.10;84.15;96740.05;595449;236;68529;-69
2022/06/12 12:14:28;;;;;;;;;;;;;;;22.09;84.18;96738.43;601588;233;63050;-69
2022/06/12 12:17:00;;;;;;;;;;;;;;;22.09;84.17;96733.88;601705;233;64629;-69
2022/06/12 12:19:28;;;;;;;;;;;;;;;22.09;84.18;96728.52;601718;233;64895;-69
2022/06/12 12:21:57;;;;;;;;;;;;;;;22.09;84.15;96731.20;601628;233;62762;-69
2022/06/12 12:24:29;;;;;;;;;;;;;;;22.09;84.16;96728.52;601339;236;67272;-69
2022/06/12 12:26:57;;;;;;;;;;;;;;;22.10;84.17;96723.98;601231;233;64605;-69
2022/06/12 12:29:27;;;;;;;;;;;;;;;22.10;84.25;96721.31;601520;234;64874;-69
2022/06/12 12:31:55;;;;;;;;;;;;;;;22.10;84.06;96718.64;601783;236;64815;-66
2022/06/12 12:34:24;;;;;;;;;;;;;;;22.09;83.80;96714.34;601779;236;66873;-66
2022/06/12 12:42:33;;;;;;;;;;;;;;;22.09;83.47;96720.48;601837;236;67193;-67
2022/06/12 12:45:11;;;;;;;;;;;;;;;22.09;83.45;96715.14;601835;236;65346;-67
2022/06/12 12:47:38;;;;;;;;;;;;;;;22.10;83.43;96715.96;601710;236;65093;-67
2022/06/12 12:50:13;;;;;;;;;;;;;;;22.09;83.43;96709.00;601717;236;64854;-67
2022/06/12 12:52:48;;;;;;;;;;;;;;;22.08;83.38;96704.73;601763;236;62725;-67
2022/06/12 12:55:32;;;;;;;;;;;;;;;22.09;83.41;96701.76;601755;236;65079;-67
2022/06/12 12:58:01;;;;;;;;;;;;;;;22.08;83.32;96704.73;601723;236;67133;-67
2022/06/12 13:00:33;;;;;;;;;;;;;;;22.08;83.31;96708.20;601787;236;63075;-67
2022/06/12 13:03:04;;;;;;;;;;;;;;;22.08;83.30;96702.06;601758;234;64860;-67
2022/06/12 13:05:34;;;;;;;;;;;;;;;22.08;83.24;96708.20;601744;236;66663;-67
2022/06/12 13:08:12;;;;;;;;;;;;;;;22.09;83.18;96698.30;601748;233;62980;-67
2022/06/12 13:10:41;;;;;;;;;;;;;;;22.09;83.15;96698.30;601702;236;64915;-67
2022/06/12 13:13:27;;;;;;;;;;;;;;;22.08;83.16;96696.70;601789;236;65392;-67
2022/06/12 13:16:14;;;;;;;;;;;;;;;22.08;83.12;96692.15;601809;236;65268;-67
2022/06/12 13:18:46;;;;;;;;;;;;;;;22.09;83.12;96692.94;601774;233;67247;-67
2022/06/12 13:21:34;;;;;;;;;;;;;;;22.08;83.10;96684.13;601781;233;67065;-67
2022/06/12 13:24:03;;;;;;;;;;;;;;;22.07;83.10;96685.21;601766;236;65252;-67